createdAt,value
2018-07-16T00:02:06.525Z,3.23
2018-07-16T00:04:35.730Z,3.83
2018-07-16T00:07:04.928Z,4.80
2018-07-16T00:09:34.428Z,3.27
2018-07-16T00:12:03.686Z,2.43
2018-07-16T00:14:32.591Z,2.00
2018-07-16T00:17:01.856Z,6.73
2018-07-16T00:19:31.500Z,7.33
2018-07-16T00:22:00.754Z,2.93
2018-07-16T00:24:29.968Z,9.03
2018-07-16T00:26:59.181Z,2.67
2018-07-16T00:29:28.358Z,2.57
2018-07-16T00:31:57.665Z,4.80
2018-07-16T00:34:26.853Z,2.60
2018-07-16T00:36:56.035Z,2.97
2018-07-16T00:39:26.209Z,3.20
2018-07-16T00:41:55.397Z,2.30
2018-07-16T00:44:24.660Z,2.60
2018-07-16T00:46:53.798Z,2.57
2018-07-16T00:49:23.009Z,2.90
2018-07-16T00:51:52.261Z,3.30
2018-07-16T00:54:21.387Z,3.20
2018-07-16T00:56:50.592Z,2.83
2018-07-16T00:59:19.746Z,2.50
2018-07-16T01:01:48.978Z,2.70
2018-07-16T01:04:18.168Z,2.43
2018-07-16T01:06:47.330Z,3.23
2018-07-16T01:09:16.509Z,5.30
2018-07-16T01:11:45.709Z,5.40
2018-07-16T01:14:14.895Z,2.50
2018-07-16T01:16:44.067Z,2.73
2018-07-16T01:19:13.217Z,2.77
2018-07-16T01:21:42.380Z,3.73
2018-07-16T01:24:11.602Z,3.13
2018-07-16T01:26:40.762Z,3.83
2018-07-16T01:29:09.972Z,3.40
2018-07-16T01:31:39.127Z,3.13
2018-07-16T01:34:08.316Z,2.60
2018-07-16T01:36:37.490Z,3.10
2018-07-16T01:39:06.659Z,2.53
2018-07-16T01:41:35.844Z,3.20
2018-07-16T01:44:05.038Z,3.30
2018-07-16T01:46:34.199Z,3.50
2018-07-16T01:49:03.397Z,2.83
2018-07-16T01:51:32.576Z,3.23
2018-07-16T01:54:01.716Z,4.43
2018-07-16T01:56:30.908Z,3.23
2018-07-16T01:59:00.093Z,6.23
2018-07-16T02:01:29.251Z,3.33
2018-07-16T02:03:58.429Z,2.87
2018-07-16T02:06:27.589Z,8.57
2018-07-16T02:08:56.718Z,3.53
2018-07-16T02:11:25.862Z,3.00
2018-07-16T02:13:55.059Z,2.60
2018-07-16T02:16:24.236Z,2.70
2018-07-16T02:18:53.449Z,4.20
2018-07-16T02:21:22.692Z,4.20
2018-07-16T02:23:51.858Z,2.60
2018-07-16T02:26:21.045Z,5.30
2018-07-16T02:28:50.290Z,3.50
2018-07-16T02:31:19.464Z,3.00
2018-07-16T02:33:48.598Z,5.00
2018-07-16T02:36:17.717Z,3.53
2018-07-16T02:38:46.874Z,3.50
2018-07-16T02:41:16.250Z,3.23
2018-07-16T02:43:45.389Z,3.97
2018-07-16T02:46:14.535Z,3.60
2018-07-16T02:48:43.701Z,6.30
2018-07-16T02:51:12.826Z,4.20
2018-07-16T02:53:42.019Z,3.17
2018-07-16T02:56:11.173Z,5.80
2018-07-16T02:58:40.321Z,5.20
2018-07-16T03:01:09.506Z,3.53
2018-07-16T03:03:38.674Z,6.63
2018-07-16T03:06:07.868Z,6.30
2018-07-16T03:08:37.046Z,6.10
2018-07-16T03:11:06.306Z,5.17
2018-07-16T03:13:35.469Z,5.20
2018-07-16T03:16:04.714Z,4.90
2018-07-16T03:18:33.870Z,4.70
2018-07-16T03:21:03.120Z,3.50
2018-07-16T03:23:32.286Z,2.87
2018-07-16T03:26:01.444Z,4.03
2018-07-16T03:28:30.599Z,6.53
2018-07-16T03:30:59.792Z,4.53
2018-07-16T03:33:28.935Z,6.20
2018-07-16T03:35:58.117Z,3.73
2018-07-16T03:38:27.326Z,4.40
2018-07-16T03:40:56.481Z,5.80
2018-07-16T03:43:25.655Z,3.47
2018-07-16T03:45:54.842Z,4.17
2018-07-16T03:48:24.960Z,3.60
2018-07-16T03:50:54.200Z,4.00
2018-07-16T03:53:23.330Z,4.03
2018-07-16T03:55:52.511Z,3.97
2018-07-16T03:58:21.656Z,7.00
2018-07-16T04:00:50.864Z,4.30
2018-07-16T04:03:20.036Z,13.57
2018-07-16T04:05:49.231Z,3.97
2018-07-16T04:08:18.438Z,4.50
2018-07-16T04:10:47.609Z,4.10
2018-07-16T04:13:16.808Z,3.90
2018-07-16T04:15:46.001Z,4.33
2018-07-16T04:18:17.691Z,4.70
2018-07-16T04:20:46.976Z,4.23
2018-07-16T04:23:16.441Z,10.03
2018-07-16T04:25:45.617Z,4.17
2018-07-16T04:28:14.803Z,5.40
2018-07-16T04:30:43.976Z,4.77
2018-07-16T04:33:13.216Z,4.57
2018-07-16T04:35:42.409Z,4.23
2018-07-16T04:38:11.641Z,3.93
2018-07-16T04:40:40.837Z,11.30
2018-07-16T04:43:10.022Z,6.00
2018-07-16T04:45:39.187Z,9.67
2018-07-16T04:48:08.336Z,4.27
2018-07-16T04:50:37.481Z,3.50
2018-07-16T04:53:06.688Z,6.03
2018-07-16T04:55:35.906Z,4.80
2018-07-16T04:58:05.179Z,3.50
2018-07-16T05:01:00.349Z,3.63
2018-07-16T05:03:29.253Z,4.30
2018-07-16T05:05:58.305Z,4.20
2018-07-16T05:08:27.469Z,3.73
2018-07-16T05:10:56.636Z,5.43
2018-07-16T05:13:25.839Z,3.33
2018-07-16T05:15:55.051Z,5.47
2018-07-16T05:18:24.415Z,3.27
2018-07-16T05:20:53.582Z,5.70
2018-07-16T05:23:22.983Z,3.00
2018-07-16T05:25:52.206Z,6.83
2018-07-16T05:28:22.377Z,5.13
2018-07-16T05:30:51.606Z,3.27
2018-07-16T05:33:20.795Z,5.97
2018-07-16T05:35:49.999Z,7.97
2018-07-16T05:38:19.237Z,6.23
2018-07-16T05:40:48.341Z,3.77
2018-07-16T05:43:17.488Z,4.10
2018-07-16T05:45:46.713Z,3.70
2018-07-16T05:48:15.919Z,3.63
2018-07-16T05:50:45.146Z,2.57
2018-07-16T05:53:14.333Z,2.53
2018-07-16T05:55:43.693Z,2.40
2018-07-16T05:58:12.934Z,7.60
2018-07-16T06:00:42.129Z,2.97
2018-07-16T06:03:11.366Z,5.07
2018-07-16T06:05:40.537Z,5.00
2018-07-16T06:08:09.701Z,2.67
2018-07-16T06:10:38.880Z,2.80
2018-07-16T06:13:08.240Z,2.40
2018-07-16T06:15:37.560Z,4.10
2018-07-16T06:18:06.718Z,2.30
2018-07-16T06:20:35.991Z,2.30
2018-07-16T06:23:05.220Z,3.80
2018-07-16T06:25:34.484Z,3.13
2018-07-16T06:28:03.723Z,1.80
2018-07-16T06:30:32.913Z,1.80
2018-07-16T06:33:02.098Z,2.40
2018-07-16T06:35:31.289Z,1.83
2018-07-16T06:38:00.464Z,2.70
2018-07-16T06:40:29.809Z,1.93
2018-07-16T06:42:59.891Z,3.53
2018-07-16T06:45:29.260Z,3.70
2018-07-16T06:47:58.451Z,3.30
2018-07-16T06:50:27.627Z,2.43
2018-07-16T06:52:56.808Z,3.37
2018-07-16T06:55:26.013Z,1.47
2018-07-16T06:57:55.242Z,2.20
2018-07-16T07:00:24.369Z,1.93
2018-07-16T07:02:53.467Z,2.13
2018-07-16T07:05:22.487Z,2.83
2018-07-16T07:07:51.664Z,2.40
2018-07-16T07:10:20.855Z,6.43
2018-07-16T07:12:50.078Z,2.07
2018-07-16T07:15:19.285Z,5.80
2018-07-16T07:17:48.682Z,2.77
2018-07-16T07:20:17.925Z,2.07
2018-07-16T07:22:47.146Z,4.67
2018-07-16T07:25:16.362Z,4.50
2018-07-16T07:27:45.524Z,3.93
2018-07-16T07:30:14.733Z,10.93
2018-07-16T07:32:44.056Z,7.23
2018-07-16T07:35:13.294Z,2.23
2018-07-16T07:37:42.421Z,5.60
2018-07-16T07:40:11.553Z,2.30
2018-07-16T07:42:40.717Z,2.90
2018-07-16T07:45:09.951Z,2.43
2018-07-16T07:47:39.206Z,4.00
2018-07-16T07:50:08.343Z,3.30
2018-07-16T07:52:37.531Z,2.47
2018-07-16T07:55:07.228Z,1.70
2018-07-16T07:57:36.041Z,3.00
2018-07-16T08:00:06.025Z,10.23
2018-07-16T08:02:35.200Z,1.97
2018-07-16T08:05:04.376Z,6.80
2018-07-16T08:07:33.539Z,4.13
2018-07-16T08:10:02.719Z,9.90
2018-07-16T08:12:32.152Z,1.90
2018-07-16T08:15:01.419Z,2.77
2018-07-16T08:17:30.705Z,5.23
2018-07-16T08:20:00.000Z,4.80
2018-07-16T08:22:29.265Z,2.77
2018-07-16T08:24:58.175Z,1.93
2018-07-16T08:27:27.308Z,2.20
2018-07-16T08:29:56.492Z,5.07
2018-07-16T08:32:25.882Z,2.30
2018-07-16T08:34:55.122Z,3.00
2018-07-16T08:37:24.283Z,4.40
2018-07-16T08:39:53.732Z,4.70
2018-07-16T08:42:23.344Z,2.27
2018-07-16T08:44:52.550Z,2.03
2018-07-16T08:47:22.170Z,2.67
2018-07-16T08:49:51.329Z,2.30
2018-07-16T08:52:20.522Z,2.07
2018-07-16T08:54:49.850Z,2.23
2018-07-16T08:57:19.066Z,2.17
2018-07-16T08:59:48.231Z,6.73
2018-07-16T09:02:17.416Z,2.20
2018-07-16T09:04:46.608Z,3.00
2018-07-16T09:07:15.895Z,4.60
2018-07-16T09:09:45.200Z,3.57
2018-07-16T09:12:14.512Z,3.20
2018-07-16T09:14:43.933Z,1.70
2018-07-16T09:17:13.093Z,5.00
2018-07-16T09:19:42.263Z,2.10
2018-07-16T09:22:11.444Z,2.03
2018-07-16T09:24:40.595Z,2.20
2018-07-16T09:27:09.799Z,2.90
2018-07-16T09:29:39.251Z,5.43
2018-07-16T09:32:08.509Z,1.97
2018-07-16T09:34:37.961Z,2.00
2018-07-16T09:37:07.217Z,2.03
2018-07-16T09:39:36.365Z,6.00
2018-07-16T09:42:05.677Z,1.70
2018-07-16T09:44:34.821Z,7.07
2018-07-16T09:47:04.066Z,4.10
2018-07-16T09:49:33.202Z,3.87
2018-07-16T09:52:03.574Z,4.40
2018-07-16T09:54:32.765Z,3.40
2018-07-16T09:57:01.917Z,2.03
2018-07-16T09:59:31.117Z,1.87
2018-07-16T10:02:05.641Z,3.03
2018-07-16T10:04:34.801Z,2.13
2018-07-16T10:07:04.147Z,2.50
2018-07-16T10:09:33.307Z,3.10
2018-07-16T10:12:02.434Z,3.47
2018-07-16T10:14:31.686Z,2.73
2018-07-16T10:17:00.919Z,2.90
2018-07-16T10:19:30.058Z,2.40
2018-07-16T10:21:59.737Z,3.43
2018-07-16T10:24:29.157Z,2.57
2018-07-16T10:26:58.320Z,2.70
2018-07-16T10:29:27.506Z,1.80
2018-07-16T10:31:56.802Z,2.07
2018-07-16T10:34:25.939Z,2.40
2018-07-16T10:36:55.147Z,2.10
2018-07-16T10:39:24.457Z,2.90
2018-07-16T10:41:53.553Z,3.70
2018-07-16T10:44:22.761Z,2.20
2018-07-16T10:46:51.901Z,2.47
2018-07-16T10:49:21.287Z,3.83
2018-07-16T10:51:50.458Z,7.83
2018-07-16T10:54:20.381Z,2.40
2018-07-16T10:56:51.432Z,4.63
2018-07-16T10:59:22.539Z,2.80
2018-07-16T11:01:51.850Z,2.20
2018-07-16T11:04:21.169Z,2.27
2018-07-16T11:06:51.897Z,2.52
2018-07-16T11:09:21.224Z,2.13
2018-07-16T11:11:52.006Z,1.97
2018-07-16T11:14:21.321Z,5.33
2018-07-16T11:16:52.100Z,3.93
2018-07-16T11:19:22.562Z,4.20
2018-07-16T11:21:51.934Z,4.20
2018-07-16T11:24:21.133Z,3.67
2018-07-16T11:26:50.285Z,1.80
2018-07-16T11:29:19.761Z,4.20
2018-07-16T11:31:48.955Z,2.10
2018-07-16T11:34:18.124Z,1.73
2018-07-16T11:36:48.848Z,2.40
2018-07-16T11:39:20.645Z,4.03
2018-07-16T11:41:50.104Z,2.87
2018-07-16T11:44:19.291Z,2.30
2018-07-16T11:46:49.586Z,2.17
2018-07-16T11:49:18.785Z,3.47
2018-07-16T11:51:49.561Z,7.07
2018-07-16T11:54:18.838Z,1.80
2018-07-16T11:56:48.034Z,4.80
2018-07-16T11:59:17.191Z,2.43
2018-07-16T12:01:48.278Z,2.83
2018-07-16T12:04:18.089Z,2.30
2018-07-16T12:06:47.343Z,4.70
2018-07-16T12:09:18.048Z,1.93
2018-07-16T12:11:48.110Z,2.53
2018-07-16T12:14:17.326Z,3.30
2018-07-16T12:16:46.492Z,2.63
2018-07-16T12:19:15.690Z,6.63
2018-07-16T12:21:47.149Z,1.60
2018-07-16T12:24:16.445Z,3.23
2018-07-16T12:26:45.603Z,2.60
2018-07-16T12:29:15.686Z,4.00
2018-07-16T12:31:46.874Z,2.13
2018-07-16T12:34:18.293Z,2.80
2018-07-16T12:36:47.745Z,5.23
2018-07-16T12:39:17.117Z,1.97
2018-07-16T12:41:46.312Z,2.20
2018-07-16T12:44:15.462Z,4.13
2018-07-16T12:46:46.267Z,2.07
2018-07-16T12:49:15.699Z,1.87
2018-07-16T12:51:45.112Z,1.93
2018-07-16T12:54:14.358Z,2.33
2018-07-16T12:56:45.281Z,1.90
2018-07-16T12:59:14.665Z,2.20
2018-07-16T13:01:45.409Z,3.20
2018-07-16T13:04:14.707Z,6.90
2018-07-16T13:06:44.120Z,4.93
2018-07-16T13:09:13.364Z,2.13
2018-07-16T13:11:42.726Z,5.17
2018-07-16T13:14:11.906Z,3.57
2018-07-16T13:16:41.065Z,2.00
2018-07-16T13:19:11.601Z,2.73
2018-07-16T13:21:40.860Z,2.40
2018-07-16T13:24:09.941Z,2.63
2018-07-16T13:26:39.263Z,4.13
2018-07-16T13:29:08.415Z,2.87
2018-07-16T13:31:37.606Z,3.03
2018-07-16T13:34:06.790Z,3.17
2018-07-16T13:36:36.009Z,2.47
2018-07-16T13:39:08.602Z,1.73
2018-07-16T13:41:37.881Z,2.00
2018-07-16T13:44:07.104Z,3.00
2018-07-16T13:46:37.722Z,2.57
2018-07-16T13:49:07.944Z,3.43
2018-07-16T13:51:37.143Z,4.10
2018-07-16T13:54:06.632Z,2.33
2018-07-16T13:56:35.859Z,2.70
2018-07-16T13:59:05.009Z,3.10
2018-07-16T14:01:34.237Z,4.30
2018-07-16T14:04:03.518Z,2.10
2018-07-16T14:06:32.768Z,2.20
2018-07-16T14:09:01.895Z,2.40
2018-07-16T14:11:31.087Z,3.33
2018-07-16T14:14:00.716Z,2.93
2018-07-16T14:16:30.398Z,2.77
2018-07-16T14:18:59.969Z,2.10
2018-07-16T14:21:29.582Z,2.33
2018-07-16T14:23:59.177Z,2.70
2018-07-16T14:26:28.809Z,2.10
2018-07-16T14:28:58.444Z,7.33
2018-07-16T14:31:28.051Z,4.27
2018-07-16T14:33:57.697Z,2.70
2018-07-16T14:36:27.283Z,4.93
2018-07-16T14:38:56.812Z,4.77
2018-07-16T14:41:27.639Z,3.13
2018-07-16T14:43:57.507Z,4.13
2018-07-16T14:46:27.146Z,2.63
2018-07-16T14:48:58.984Z,3.37
2018-07-16T14:51:28.582Z,2.73
2018-07-16T14:53:58.191Z,2.90
2018-07-16T14:56:27.718Z,2.50
2018-07-16T14:58:57.330Z,2.13
2018-07-16T15:01:27.148Z,7.57
2018-07-16T15:03:58.055Z,3.57
2018-07-16T15:06:27.853Z,8.23
2018-07-16T15:08:59.058Z,6.10
2018-07-16T15:11:28.813Z,2.23
2018-07-16T15:13:58.461Z,3.30
2018-07-16T15:16:28.016Z,2.77
2018-07-16T15:18:58.910Z,1.87
2018-07-16T15:21:29.225Z,2.37
2018-07-16T15:23:58.754Z,5.10
2018-07-16T15:26:28.642Z,2.57
2018-07-16T15:28:58.812Z,2.50
2018-07-16T15:31:28.475Z,5.37
2018-07-16T15:33:58.555Z,2.13
2018-07-16T15:36:28.173Z,4.53
2018-07-16T15:38:58.984Z,2.57
2018-07-16T15:41:28.614Z,7.67
2018-07-16T15:43:59.775Z,6.90
2018-07-16T15:46:29.371Z,5.43
2018-07-16T15:49:00.636Z,6.07
2018-07-16T15:51:30.454Z,5.80
2018-07-16T15:54:00.189Z,2.57
2018-07-16T15:56:30.815Z,2.23
2018-07-16T15:59:01.822Z,2.40
2018-07-16T16:01:33.392Z,5.43
2018-07-16T16:04:02.919Z,5.93
2018-07-16T16:06:32.414Z,3.60
2018-07-16T16:09:01.981Z,3.07
2018-07-16T16:11:31.501Z,5.93
2018-07-16T16:14:01.041Z,16.23
2018-07-16T16:16:32.013Z,8.43
2018-07-16T16:19:03.667Z,6.57
2018-07-16T16:21:33.795Z,14.20
2018-07-16T16:24:04.753Z,10.53
2018-07-16T16:26:35.408Z,11.13
2018-07-16T16:29:05.069Z,9.50
2018-07-16T16:31:34.577Z,8.33
2018-07-16T16:34:04.161Z,18.90
2018-07-16T16:36:35.516Z,18.13
2018-07-16T16:39:09.496Z,22.97
2018-07-16T16:41:39.261Z,16.63
2018-07-16T16:44:08.751Z,8.97
2018-07-16T16:46:41.033Z,5.83
2018-07-16T16:49:10.639Z,7.90
2018-07-16T16:51:42.599Z,8.23
2018-07-16T16:54:12.765Z,9.27
2018-07-16T16:56:42.628Z,7.27
2018-07-16T16:59:13.638Z,6.93
2018-07-16T17:01:43.274Z,7.43
2018-07-16T17:04:13.012Z,6.10
2018-07-16T17:06:42.523Z,15.53
2018-07-16T17:09:15.270Z,7.10
2018-07-16T17:11:45.155Z,7.80
2018-07-16T17:14:14.712Z,15.80
2018-07-16T17:16:45.141Z,6.57
2018-07-16T17:19:14.715Z,7.77
2018-07-16T17:21:44.453Z,7.13
2018-07-16T17:24:15.642Z,11.83
2018-07-16T17:26:47.142Z,6.90
2018-07-16T17:29:16.689Z,8.13
2018-07-16T17:31:47.441Z,6.17
2018-07-16T17:34:17.025Z,8.20
2018-07-16T17:36:46.698Z,6.63
2018-07-16T17:39:16.242Z,6.53
2018-07-16T17:41:45.764Z,6.50
2018-07-16T17:44:15.710Z,5.90
2018-07-16T17:46:45.353Z,9.17
2018-07-16T17:49:16.342Z,10.43
2018-07-16T17:51:47.705Z,8.70
2018-07-16T17:54:18.733Z,7.53
2018-07-16T17:56:50.209Z,5.80
2018-07-16T17:59:21.237Z,6.00
2018-07-16T18:01:51.996Z,7.40
2018-07-16T18:04:22.382Z,6.03
2018-07-16T18:06:52.590Z,6.97
2018-07-16T18:09:22.424Z,6.70
2018-07-16T18:11:53.386Z,11.10
2018-07-16T18:14:23.700Z,7.67
2018-07-16T18:16:53.394Z,7.63
2018-07-16T18:19:23.698Z,7.60
2018-07-16T18:21:54.155Z,8.27
2018-07-16T18:24:24.492Z,8.07
2018-07-16T18:26:54.550Z,7.60
2018-07-16T18:29:24.150Z,7.33
2018-07-16T18:31:53.625Z,9.13
2018-07-16T18:34:23.176Z,7.00
2018-07-16T18:36:53.907Z,6.60
2018-07-16T18:39:24.091Z,10.30
2018-07-16T18:41:54.819Z,7.37
2018-07-16T18:44:26.859Z,10.77
2018-07-16T18:46:56.560Z,7.30
2018-07-16T18:49:26.006Z,10.67
2018-07-16T18:51:56.260Z,6.30
2018-07-16T18:54:31.806Z,9.93
2018-07-16T18:57:02.128Z,12.53
2018-07-16T18:59:32.529Z,6.30
2018-07-16T19:02:01.961Z,6.40
2018-07-16T19:04:31.449Z,6.90
2018-07-16T19:07:04.596Z,15.80
2018-07-16T19:10:22.114Z,13.80
2018-07-16T19:12:51.422Z,8.87
2018-07-16T19:15:26.268Z,7.20
2018-07-16T19:18:00.154Z,7.30
2018-07-16T19:20:29.515Z,7.90
2018-07-16T19:22:58.803Z,6.50
2018-07-16T19:25:29.749Z,5.83
2018-07-16T19:27:59.097Z,5.67
2018-07-16T19:30:28.422Z,7.13
2018-07-16T19:32:57.763Z,6.90
2018-07-16T19:35:27.243Z,12.33
2018-07-16T19:37:57.300Z,6.60
2018-07-16T19:40:26.665Z,6.80
2018-07-16T19:42:55.936Z,8.93
2018-07-16T19:45:25.235Z,8.50
2018-07-16T19:47:54.398Z,6.53
2018-07-16T19:50:23.625Z,7.30
2018-07-16T19:52:54.740Z,7.00
2018-07-16T19:55:59.208Z,12.43
2018-07-16T19:58:28.449Z,6.80
2018-07-16T20:00:57.676Z,8.87
2018-07-16T20:03:26.916Z,8.13
2018-07-16T20:05:56.149Z,8.67
2018-07-16T20:08:25.567Z,11.83
2018-07-16T20:10:54.752Z,5.40
2018-07-16T20:13:23.974Z,5.83
2018-07-16T20:15:53.196Z,7.93
2018-07-16T20:18:22.139Z,5.33
2018-07-16T20:20:57.094Z,4.53
2018-07-16T20:23:26.282Z,5.13
2018-07-16T20:26:23.741Z,5.90
2018-07-16T20:28:53.251Z,7.00
2018-07-16T20:31:22.472Z,7.80
2018-07-16T20:33:51.752Z,5.67
2018-07-16T20:36:20.935Z,9.37
2018-07-16T20:38:50.111Z,16.20
2018-07-16T20:41:19.284Z,5.73
2018-07-16T20:43:48.534Z,5.43
2018-07-16T20:46:25.361Z,4.70
2018-07-16T20:48:54.586Z,6.50
2018-07-16T20:51:23.789Z,4.27
2018-07-16T20:53:53.009Z,5.53
2018-07-16T20:56:28.505Z,5.70
2018-07-16T20:58:57.810Z,6.13
2018-07-16T21:01:27.048Z,5.37
2018-07-16T21:03:56.296Z,4.97
2018-07-16T21:06:25.542Z,6.40
2018-07-16T21:08:54.742Z,7.33
2018-07-16T21:11:23.994Z,5.63
2018-07-16T21:13:53.270Z,6.60
2018-07-16T21:16:22.503Z,4.97
2018-07-16T21:18:51.642Z,9.10
2018-07-16T21:21:20.820Z,5.97
2018-07-16T21:23:50.078Z,5.60
2018-07-16T21:26:19.246Z,5.83
2018-07-16T21:28:48.524Z,6.23
2018-07-16T21:31:17.717Z,5.90
2018-07-16T21:33:46.917Z,5.97
2018-07-16T21:36:16.137Z,6.43
2018-07-16T21:38:45.382Z,5.63
2018-07-16T21:41:14.708Z,10.70
2018-07-16T21:43:43.961Z,7.73
2018-07-16T21:46:13.153Z,5.80
2018-07-16T21:48:42.300Z,5.93
2018-07-16T21:51:11.550Z,7.40
2018-07-16T21:53:40.857Z,6.83
2018-07-16T21:56:10.028Z,6.33
2018-07-16T21:58:39.204Z,8.27
2018-07-16T22:01:08.458Z,6.90
2018-07-16T22:03:37.927Z,7.10
2018-07-16T22:06:07.139Z,6.93
2018-07-16T22:08:36.303Z,12.20
2018-07-16T22:11:05.506Z,6.47
2018-07-16T22:13:34.691Z,5.80
2018-07-16T22:16:03.835Z,7.00
2018-07-16T22:18:33.031Z,6.93
2018-07-16T22:21:02.312Z,7.13
2018-07-16T22:23:31.500Z,8.43
2018-07-16T22:26:00.719Z,10.43
2018-07-16T22:28:30.152Z,13.43
2018-07-16T22:30:59.477Z,6.73
2018-07-16T22:33:28.700Z,10.60
2018-07-16T22:35:58.037Z,8.67
2018-07-16T22:38:27.213Z,8.33
2018-07-16T22:40:56.384Z,7.00
2018-07-16T22:43:25.638Z,8.47
2018-07-16T22:45:54.846Z,6.77
2018-07-16T22:48:24.061Z,7.13
2018-07-16T22:50:53.313Z,10.87
2018-07-16T22:53:22.495Z,10.23
2018-07-16T22:55:51.644Z,7.60
2018-07-16T22:58:20.842Z,7.10
2018-07-16T23:00:50.096Z,9.90
2018-07-16T23:03:19.278Z,8.27
2018-07-16T23:05:48.479Z,9.73
2018-07-16T23:08:18.693Z,8.70
2018-07-16T23:10:48.251Z,9.63
2018-07-16T23:13:17.688Z,8.10
2018-07-16T23:15:47.000Z,9.77
2018-07-16T23:18:16.239Z,10.70
2018-07-16T23:20:45.450Z,8.33
2018-07-16T23:23:14.642Z,17.07
2018-07-16T23:25:43.908Z,7.80
2018-07-16T23:28:13.174Z,10.80
2018-07-16T23:30:42.364Z,7.60
2018-07-16T23:33:11.548Z,16.93
2018-07-16T23:35:40.752Z,10.40
2018-07-16T23:38:10.037Z,7.70
2018-07-16T23:40:39.255Z,7.13
2018-07-16T23:43:08.489Z,12.63
2018-07-16T23:45:37.673Z,10.53
2018-07-16T23:48:07.054Z,11.03
2018-07-16T23:50:36.278Z,7.47
2018-07-16T23:53:05.730Z,8.80
2018-07-16T23:55:34.972Z,10.60
2018-07-16T23:58:04.195Z,13.13
